createdAt,value
2019-01-24T00:00:32.749Z,389
2019-01-24T00:01:39.400Z,390
2019-01-24T00:02:46.627Z,389
2019-01-24T00:03:53.836Z,390
2019-01-24T00:05:00.770Z,389
2019-01-24T00:06:07.977Z,389
2019-01-24T00:07:15.164Z,389
2019-01-24T00:08:22.086Z,389
2019-01-24T00:09:29.310Z,389
2019-01-24T00:10:36.515Z,389
2019-01-24T00:11:43.737Z,389
2019-01-24T00:12:50.930Z,389
2019-01-24T00:13:58.136Z,389
2019-01-24T00:15:05.330Z,389
2019-01-24T00:16:12.548Z,389
2019-01-24T00:17:19.784Z,388
2019-01-24T00:18:27.069Z,389
2019-01-24T00:19:34.262Z,389
2019-01-24T00:20:41.483Z,388
2019-01-24T00:21:48.413Z,388
2019-01-24T00:22:55.623Z,388
2019-01-24T00:24:02.306Z,389
2019-01-24T00:25:09.511Z,388
2019-01-24T00:26:16.709Z,389
2019-01-24T00:27:23.908Z,388
2019-01-24T00:28:31.100Z,388
2019-01-24T00:29:38.295Z,388
2019-01-24T00:30:45.498Z,388
2019-01-24T00:31:52.715Z,389
2019-01-24T00:32:59.911Z,388
2019-01-24T00:34:06.852Z,388
2019-01-24T00:35:14.047Z,388
2019-01-24T00:36:21.270Z,388
2019-01-24T00:37:28.475Z,388
2019-01-24T00:38:35.686Z,388
2019-01-24T00:39:42.892Z,388
2019-01-24T00:40:50.108Z,389
2019-01-24T00:41:57.303Z,388
2019-01-24T00:43:04.226Z,388
2019-01-24T00:44:11.435Z,388
2019-01-24T00:45:18.355Z,388
2019-01-24T00:46:25.276Z,388
2019-01-24T00:47:32.500Z,388
2019-01-24T00:48:39.705Z,387
2019-01-24T00:49:46.643Z,388
2019-01-24T00:50:53.847Z,388
2019-01-24T00:52:01.064Z,387
2019-01-24T00:53:08.268Z,388
2019-01-24T00:54:15.457Z,388
2019-01-24T00:55:22.388Z,388
2019-01-24T00:56:29.587Z,388
2019-01-24T00:57:36.787Z,388
2019-01-24T00:58:43.992Z,387
2019-01-24T00:59:50.919Z,388
2019-01-24T01:00:58.133Z,387
2019-01-24T01:02:04.792Z,388
2019-01-24T01:03:12.021Z,388
2019-01-24T01:04:19.216Z,388
2019-01-24T01:05:26.151Z,387
2019-01-24T01:06:33.357Z,388
2019-01-24T01:07:40.282Z,388
2019-01-24T01:08:47.474Z,388
2019-01-24T01:09:54.676Z,387
2019-01-24T01:11:01.866Z,388
2019-01-24T01:12:09.063Z,388
2019-01-24T01:13:16.265Z,388
2019-01-24T01:14:23.468Z,387
2019-01-24T01:15:30.676Z,387
2019-01-24T01:16:37.884Z,388
2019-01-24T01:17:45.080Z,387
2019-01-24T01:18:52.308Z,387
2019-01-24T01:19:59.509Z,388
2019-01-24T01:21:06.440Z,387
2019-01-24T01:22:13.643Z,388
2019-01-24T01:23:20.850Z,388
2019-01-24T01:24:28.053Z,388
2019-01-24T01:25:35.245Z,387
2019-01-24T01:26:42.448Z,387
2019-01-24T01:27:49.365Z,388
2019-01-24T01:28:56.571Z,388
2019-01-24T01:30:03.487Z,387
2019-01-24T01:31:10.681Z,388
2019-01-24T01:32:17.888Z,388
2019-01-24T01:33:25.087Z,388
2019-01-24T01:34:37.277Z,388
2019-01-24T01:35:44.206Z,388
2019-01-24T01:36:51.139Z,388
2019-01-24T01:37:58.336Z,388
2019-01-24T01:39:05.269Z,388
2019-01-24T01:40:12.464Z,388
2019-01-24T01:41:19.670Z,388
2019-01-24T01:42:26.591Z,389
2019-01-24T01:43:33.804Z,388
2019-01-24T01:44:40.729Z,388
2019-01-24T01:45:47.402Z,388
2019-01-24T01:46:54.322Z,388
2019-01-24T01:48:01.524Z,388
2019-01-24T01:49:08.723Z,388
2019-01-24T01:50:15.926Z,389
2019-01-24T01:51:23.118Z,388
2019-01-24T01:52:30.314Z,388
2019-01-24T01:53:37.530Z,387
2019-01-24T01:54:44.741Z,388
2019-01-24T01:55:51.674Z,387
2019-01-24T01:56:58.876Z,387
2019-01-24T01:58:05.840Z,388
2019-01-24T01:59:13.043Z,388
2019-01-24T02:00:20.249Z,388
2019-01-24T02:01:27.447Z,389
2019-01-24T02:02:34.652Z,389
2019-01-24T02:03:41.023Z,389
2019-01-24T02:04:48.227Z,389
2019-01-24T02:05:55.446Z,388
2019-01-24T02:07:02.650Z,388
2019-01-24T02:08:09.858Z,389
2019-01-24T02:09:17.065Z,388
2019-01-24T02:10:24.264Z,388
2019-01-24T02:11:31.463Z,388
2019-01-24T02:12:38.667Z,388
2019-01-24T02:13:45.874Z,388
2019-01-24T02:14:52.792Z,388
2019-01-24T02:15:59.713Z,388
2019-01-24T02:17:06.916Z,389
2019-01-24T02:18:14.446Z,389
2019-01-24T02:19:21.121Z,389
2019-01-24T02:20:28.325Z,389
2019-01-24T02:21:35.281Z,389
2019-01-24T02:22:42.463Z,389
2019-01-24T02:23:49.414Z,389
2019-01-24T02:24:56.342Z,388
2019-01-24T02:26:03.287Z,389
2019-01-24T02:27:10.492Z,388
2019-01-24T02:28:17.413Z,389
2019-01-24T02:29:24.615Z,389
2019-01-24T02:30:31.546Z,388
2019-01-24T02:31:38.749Z,388
2019-01-24T02:32:45.965Z,389
2019-01-24T02:33:53.165Z,389
2019-01-24T02:35:00.098Z,389
2019-01-24T02:36:21.939Z,389
2019-01-24T02:37:29.060Z,389
2019-01-24T02:38:36.266Z,389
2019-01-24T02:39:43.468Z,389
2019-01-24T02:40:50.724Z,389
2019-01-24T02:41:57.653Z,389
2019-01-24T02:43:04.892Z,389
2019-01-24T02:44:11.823Z,389
2019-01-24T02:45:19.027Z,389
2019-01-24T02:46:26.273Z,389
2019-01-24T02:47:32.908Z,389
2019-01-24T02:48:40.109Z,390
2019-01-24T02:49:47.315Z,389
2019-01-24T02:50:54.248Z,389
2019-01-24T02:52:01.454Z,389
2019-01-24T02:53:08.660Z,389
2019-01-24T02:54:15.588Z,390
2019-01-24T02:55:22.791Z,389
2019-01-24T02:56:29.989Z,389
2019-01-24T02:57:37.187Z,389
2019-01-24T02:58:44.387Z,389
2019-01-24T02:59:51.581Z,389
2019-01-24T03:00:58.796Z,389
2019-01-24T03:02:06.006Z,389
2019-01-24T03:03:13.245Z,389
2019-01-24T03:04:20.460Z,389
2019-01-24T03:05:27.659Z,390
2019-01-24T03:06:34.607Z,389
2019-01-24T03:07:41.535Z,390
2019-01-24T03:08:48.732Z,389
2019-01-24T03:09:55.938Z,390
2019-01-24T03:11:02.860Z,389
2019-01-24T03:12:10.066Z,389
2019-01-24T03:13:17.263Z,389
2019-01-24T03:14:24.460Z,389
2019-01-24T03:15:31.392Z,389
2019-01-24T03:16:38.318Z,389
2019-01-24T03:17:45.526Z,389
2019-01-24T03:18:52.723Z,389
2019-01-24T03:19:59.390Z,389
2019-01-24T03:21:06.604Z,390
2019-01-24T03:22:13.811Z,389
2019-01-24T03:23:21.016Z,390
2019-01-24T03:24:28.212Z,389
2019-01-24T03:25:35.412Z,390
2019-01-24T03:26:42.609Z,389
2019-01-24T03:27:49.804Z,390
2019-01-24T03:28:57.025Z,389
2019-01-24T03:30:04.226Z,390
2019-01-24T03:31:11.441Z,390
2019-01-24T03:32:18.362Z,389
2019-01-24T03:33:25.565Z,390
2019-01-24T03:34:32.757Z,390
2019-01-24T03:35:39.687Z,390
2019-01-24T03:36:46.612Z,390
2019-01-24T03:37:53.810Z,389
2019-01-24T03:39:00.469Z,389
2019-01-24T03:40:07.684Z,390
2019-01-24T03:41:14.899Z,390
2019-01-24T03:42:22.113Z,389
2019-01-24T03:43:29.309Z,389
2019-01-24T03:44:36.504Z,390
2019-01-24T03:45:43.704Z,389
2019-01-24T03:46:50.903Z,390
2019-01-24T03:47:58.102Z,389
2019-01-24T03:49:05.306Z,390
2019-01-24T03:50:12.509Z,390
2019-01-24T03:51:19.443Z,389
2019-01-24T03:52:26.649Z,390
2019-01-24T03:53:33.843Z,389
2019-01-24T03:54:41.049Z,389
2019-01-24T03:55:48.264Z,390
2019-01-24T03:56:55.190Z,389
2019-01-24T03:58:02.410Z,390
2019-01-24T03:59:09.629Z,390
2019-01-24T04:00:16.831Z,390
2019-01-24T04:01:24.026Z,390
2019-01-24T04:02:31.228Z,390
2019-01-24T04:03:38.162Z,390
2019-01-24T04:04:45.358Z,390
2019-01-24T04:05:52.554Z,390
2019-01-24T04:06:59.496Z,390
2019-01-24T04:08:06.700Z,390
2019-01-24T04:09:13.914Z,390
2019-01-24T04:10:21.106Z,390
2019-01-24T04:11:28.053Z,390
2019-01-24T04:12:35.269Z,390
2019-01-24T04:13:42.475Z,389
2019-01-24T04:14:49.121Z,390
2019-01-24T04:15:56.055Z,390
2019-01-24T04:17:03.257Z,390
2019-01-24T04:18:10.458Z,390
2019-01-24T04:19:17.656Z,390
2019-01-24T04:20:24.612Z,390
2019-01-24T04:21:31.569Z,390
2019-01-24T04:22:38.788Z,390
2019-01-24T04:23:45.991Z,390
2019-01-24T04:24:53.190Z,390
2019-01-24T04:26:00.414Z,390
2019-01-24T04:27:07.612Z,390
2019-01-24T04:28:14.824Z,390
2019-01-24T04:29:22.028Z,389
2019-01-24T04:30:29.219Z,390
2019-01-24T04:31:36.407Z,390
2019-01-24T04:32:43.607Z,390
2019-01-24T04:33:50.809Z,390
2019-01-24T04:34:58.004Z,390
2019-01-24T04:36:05.216Z,389
2019-01-24T04:37:12.419Z,389
2019-01-24T04:38:19.369Z,390
2019-01-24T04:39:26.228Z,390
2019-01-24T04:40:33.418Z,389
2019-01-24T04:41:40.612Z,389
2019-01-24T04:42:47.543Z,390
2019-01-24T04:43:54.738Z,390
2019-01-24T04:45:01.961Z,390
2019-01-24T04:46:09.153Z,390
2019-01-24T04:47:16.364Z,390
2019-01-24T04:48:23.315Z,389
2019-01-24T04:49:30.527Z,390
2019-01-24T04:50:37.720Z,390
2019-01-24T04:51:44.919Z,389
2019-01-24T04:52:52.108Z,390
2019-01-24T04:53:59.303Z,390
2019-01-24T04:55:06.501Z,390
2019-01-24T04:56:13.440Z,390
2019-01-24T04:57:20.643Z,390
2019-01-24T04:58:27.566Z,390
2019-01-24T04:59:34.775Z,390
2019-01-24T05:00:41.975Z,390
2019-01-24T05:01:49.173Z,390
2019-01-24T05:02:56.377Z,390
2019-01-24T05:04:03.572Z,390
2019-01-24T05:05:10.530Z,390
2019-01-24T05:06:17.729Z,390
2019-01-24T05:07:24.893Z,390
2019-01-24T05:08:31.812Z,390
2019-01-24T05:09:39.032Z,390
2019-01-24T05:10:46.235Z,390
2019-01-24T05:11:52.891Z,390
2019-01-24T05:12:59.823Z,389
2019-01-24T05:14:06.768Z,390
2019-01-24T05:15:13.978Z,389
2019-01-24T05:16:21.188Z,391
2019-01-24T05:17:28.118Z,390
2019-01-24T05:18:35.337Z,390
2019-01-24T05:19:42.533Z,390
2019-01-24T05:20:49.727Z,389
2019-01-24T05:21:56.648Z,390
2019-01-24T05:23:03.840Z,390
2019-01-24T05:24:11.042Z,389
2019-01-24T05:25:17.982Z,390
2019-01-24T05:26:25.199Z,390
2019-01-24T05:27:32.154Z,390
2019-01-24T05:28:39.348Z,390
2019-01-24T05:29:46.574Z,390
2019-01-24T05:30:53.785Z,390
2019-01-24T05:32:01.001Z,390
2019-01-24T05:33:08.195Z,390
2019-01-24T05:34:15.400Z,390
2019-01-24T05:35:22.599Z,391
2019-01-24T05:36:29.805Z,390
2019-01-24T05:37:37.006Z,390
2019-01-24T05:38:44.202Z,390
2019-01-24T05:39:51.122Z,390
2019-01-24T05:40:58.039Z,391
2019-01-24T05:42:04.963Z,391
2019-01-24T05:43:12.167Z,390
2019-01-24T05:44:19.093Z,390
2019-01-24T05:45:26.295Z,390
2019-01-24T05:46:33.500Z,390
2019-01-24T05:47:40.695Z,390
2019-01-24T05:48:47.901Z,390
2019-01-24T05:49:55.105Z,390
2019-01-24T05:51:02.054Z,390
2019-01-24T05:52:08.979Z,390
2019-01-24T05:53:16.179Z,391
2019-01-24T05:54:23.597Z,390
2019-01-24T05:55:32.214Z,390
2019-01-24T05:56:39.482Z,390
2019-01-24T05:57:46.684Z,390
2019-01-24T05:58:53.614Z,390
2019-01-24T06:00:00.821Z,390
2019-01-24T06:01:08.024Z,391
2019-01-24T06:02:14.963Z,390
2019-01-24T06:03:22.155Z,390
2019-01-24T06:04:29.082Z,390
2019-01-24T06:05:42.864Z,391
2019-01-24T06:06:49.779Z,391
2019-01-24T06:07:56.985Z,391
2019-01-24T06:09:04.190Z,391
2019-01-24T06:10:11.391Z,390
2019-01-24T06:11:18.593Z,391
2019-01-24T06:12:25.788Z,390
2019-01-24T06:13:32.983Z,390
2019-01-24T06:14:40.189Z,390
2019-01-24T06:15:47.122Z,390
2019-01-24T06:16:54.322Z,390
2019-01-24T06:18:02.950Z,390
2019-01-24T06:19:10.159Z,390
2019-01-24T06:20:17.365Z,390
2019-01-24T06:21:24.286Z,391
2019-01-24T06:22:31.233Z,391
2019-01-24T06:23:38.450Z,391
2019-01-24T06:24:45.646Z,391
2019-01-24T06:25:52.847Z,390
2019-01-24T06:27:00.047Z,390
2019-01-24T06:28:07.254Z,391
2019-01-24T06:29:14.179Z,390
2019-01-24T06:30:21.387Z,390
2019-01-24T06:31:28.355Z,391
2019-01-24T06:32:35.559Z,391
2019-01-24T06:33:42.784Z,390
2019-01-24T06:34:49.736Z,391
2019-01-24T06:35:56.952Z,391
2019-01-24T06:37:04.399Z,390
2019-01-24T06:38:11.599Z,391
2019-01-24T06:39:18.752Z,391
2019-01-24T06:40:25.955Z,391
2019-01-24T06:41:33.390Z,391
2019-01-24T06:42:40.621Z,391
2019-01-24T06:43:47.575Z,390
2019-01-24T06:44:54.780Z,390
2019-01-24T06:46:01.978Z,390
2019-01-24T06:47:08.920Z,390
2019-01-24T06:48:16.201Z,390
2019-01-24T06:49:23.402Z,391
2019-01-24T06:50:30.068Z,391
2019-01-24T06:51:37.007Z,390
2019-01-24T06:52:44.209Z,390
2019-01-24T06:53:51.434Z,391
2019-01-24T06:54:58.365Z,390
2019-01-24T06:56:05.587Z,391
2019-01-24T06:57:12.801Z,390
2019-01-24T06:58:20.081Z,391
2019-01-24T06:59:27.515Z,390
2019-01-24T07:00:34.733Z,390
2019-01-24T07:01:41.896Z,390
2019-01-24T07:02:49.119Z,390
2019-01-24T07:03:56.327Z,390
2019-01-24T07:05:03.535Z,391
2019-01-24T07:06:10.971Z,391
2019-01-24T07:07:18.185Z,391
2019-01-24T07:08:25.346Z,391
2019-01-24T07:09:32.261Z,390
2019-01-24T07:10:38.674Z,391
2019-01-24T07:11:45.617Z,391
2019-01-24T07:12:52.538Z,391
2019-01-24T07:13:59.753Z,391
2019-01-24T07:15:06.975Z,390
2019-01-24T07:16:13.929Z,391
2019-01-24T07:17:21.084Z,391
2019-01-24T07:18:28.291Z,391
2019-01-24T07:19:35.418Z,391
2019-01-24T07:20:42.628Z,391
2019-01-24T07:21:49.835Z,390
2019-01-24T07:22:57.054Z,391
2019-01-24T07:24:04.275Z,391
2019-01-24T07:25:11.511Z,391
2019-01-24T07:26:18.729Z,391
2019-01-24T07:27:25.935Z,391
2019-01-24T07:28:32.880Z,390
2019-01-24T07:29:40.306Z,391
2019-01-24T07:30:47.520Z,391
2019-01-24T07:31:54.712Z,391
2019-01-24T07:33:01.933Z,390
2019-01-24T07:34:09.173Z,391
2019-01-24T07:35:16.389Z,391
2019-01-24T07:36:23.586Z,391
2019-01-24T07:37:30.517Z,390
2019-01-24T07:38:37.435Z,391
2019-01-24T07:39:44.400Z,391
2019-01-24T07:40:51.604Z,391
2019-01-24T07:41:59.027Z,391
2019-01-24T07:43:05.954Z,391
2019-01-24T07:44:13.154Z,390
2019-01-24T07:45:19.530Z,391
2019-01-24T07:46:26.198Z,390
2019-01-24T07:47:33.409Z,391
2019-01-24T07:48:40.350Z,391
2019-01-24T07:49:47.296Z,390
2019-01-24T07:50:54.516Z,390
2019-01-24T07:52:01.736Z,390
2019-01-24T07:53:08.951Z,390
2019-01-24T07:54:16.157Z,390
2019-01-24T07:55:23.385Z,390
2019-01-24T07:56:30.330Z,390
2019-01-24T07:57:37.267Z,390
2019-01-24T07:58:44.463Z,390
2019-01-24T07:59:51.400Z,390
2019-01-24T08:00:58.596Z,390
2019-01-24T08:02:06.022Z,389
2019-01-24T08:03:12.987Z,390
2019-01-24T08:04:20.211Z,390
2019-01-24T08:05:27.419Z,390
2019-01-24T08:06:34.574Z,390
2019-01-24T08:07:41.780Z,390
2019-01-24T08:08:49.002Z,390
2019-01-24T08:09:56.200Z,390
2019-01-24T08:11:03.124Z,390
2019-01-24T08:12:10.328Z,389
2019-01-24T08:13:17.529Z,389
2019-01-24T08:14:24.726Z,390
2019-01-24T08:15:31.930Z,390
2019-01-24T08:16:39.134Z,389
2019-01-24T08:17:46.059Z,389
2019-01-24T08:18:53.266Z,389
2019-01-24T08:20:00.243Z,389
2019-01-24T08:21:07.444Z,389
2019-01-24T08:22:14.634Z,389
2019-01-24T08:23:21.838Z,389
2019-01-24T08:24:28.780Z,389
2019-01-24T08:25:35.700Z,388
2019-01-24T08:26:42.898Z,389
2019-01-24T08:27:50.106Z,389
2019-01-24T08:28:57.323Z,388
2019-01-24T08:30:04.522Z,388
2019-01-24T08:31:11.713Z,388
2019-01-24T08:32:18.909Z,388
2019-01-24T08:33:26.112Z,387
2019-01-24T08:34:33.313Z,388
2019-01-24T08:35:40.536Z,388
2019-01-24T08:36:47.740Z,388
2019-01-24T08:37:54.950Z,388
2019-01-24T08:39:02.148Z,388
2019-01-24T08:40:09.344Z,387
2019-01-24T08:41:16.552Z,388
2019-01-24T08:42:23.755Z,388
2019-01-24T08:43:30.967Z,387
2019-01-24T08:44:37.893Z,387
2019-01-24T08:45:44.553Z,387
2019-01-24T08:46:51.756Z,386
2019-01-24T08:47:58.696Z,386
2019-01-24T08:49:05.887Z,386
2019-01-24T08:50:12.532Z,386
2019-01-24T08:51:19.474Z,386
2019-01-24T08:52:26.678Z,386
2019-01-24T08:53:33.881Z,386
2019-01-24T08:54:41.106Z,386
2019-01-24T08:55:48.324Z,386
2019-01-24T08:56:54.978Z,386
2019-01-24T08:58:01.908Z,386
2019-01-24T08:59:09.100Z,386
2019-01-24T09:00:16.300Z,386
2019-01-24T09:01:23.503Z,385
2019-01-24T09:02:30.703Z,385
2019-01-24T09:03:37.630Z,386
2019-01-24T09:04:44.845Z,385
2019-01-24T09:05:52.051Z,385
2019-01-24T09:06:59.027Z,384
2019-01-24T09:08:05.958Z,384
2019-01-24T09:09:13.158Z,384
2019-01-24T09:10:20.356Z,384
2019-01-24T09:11:27.555Z,384
2019-01-24T09:12:34.757Z,383
2019-01-24T09:13:41.961Z,384
2019-01-24T09:14:49.166Z,383
2019-01-24T09:15:56.131Z,383
2019-01-24T09:17:03.063Z,383
2019-01-24T09:18:10.290Z,383
2019-01-24T09:19:16.972Z,383
2019-01-24T09:20:24.177Z,382
2019-01-24T09:21:31.380Z,383
2019-01-24T09:22:38.609Z,382
2019-01-24T09:23:45.804Z,382
2019-01-24T09:24:53.007Z,382
2019-01-24T09:26:00.194Z,383
2019-01-24T09:27:07.412Z,384
2019-01-24T09:28:16.127Z,384
2019-01-24T09:29:23.054Z,383
2019-01-24T09:30:30.257Z,382
2019-01-24T09:31:37.458Z,382
2019-01-24T09:32:44.657Z,382
2019-01-24T09:33:51.852Z,381
2019-01-24T09:34:58.516Z,381
2019-01-24T09:36:05.465Z,382
2019-01-24T09:37:12.671Z,381
2019-01-24T09:38:19.887Z,380
2019-01-24T09:39:26.801Z,380
2019-01-24T09:40:33.746Z,381
2019-01-24T09:41:40.422Z,380
2019-01-24T09:42:47.346Z,380
2019-01-24T09:43:54.522Z,380
2019-01-24T09:45:01.504Z,380
2019-01-24T09:46:08.701Z,379
2019-01-24T09:47:15.915Z,379
2019-01-24T09:48:22.854Z,379
2019-01-24T09:49:30.081Z,378
2019-01-24T09:50:36.736Z,379
2019-01-24T09:51:43.948Z,380
2019-01-24T09:52:50.864Z,381
2019-01-24T09:53:58.060Z,381
2019-01-24T09:55:04.991Z,381
2019-01-24T09:56:11.645Z,379
2019-01-24T09:57:18.856Z,380
2019-01-24T09:58:25.781Z,383
2019-01-24T09:59:32.705Z,380
2019-01-24T10:00:39.930Z,383
2019-01-24T10:01:47.150Z,382
2019-01-24T10:02:54.587Z,382
2019-01-24T10:04:01.789Z,383
2019-01-24T10:05:09.209Z,383
2019-01-24T10:06:16.411Z,381
2019-01-24T10:07:23.643Z,382
2019-01-24T10:08:30.859Z,381
2019-01-24T10:09:37.794Z,381
2019-01-24T10:10:44.733Z,381
2019-01-24T10:11:51.944Z,380
2019-01-24T10:12:59.155Z,379
2019-01-24T10:14:06.378Z,378
2019-01-24T10:15:13.584Z,377
2019-01-24T10:16:20.778Z,376
2019-01-24T10:17:27.985Z,374
2019-01-24T10:18:35.207Z,372
2019-01-24T10:19:42.419Z,372
2019-01-24T10:20:49.336Z,370
2019-01-24T10:21:56.529Z,369
2019-01-24T10:23:03.735Z,369
2019-01-24T10:24:10.955Z,370
2019-01-24T10:25:18.154Z,367
2019-01-24T10:26:25.355Z,368
2019-01-24T10:27:32.572Z,370
2019-01-24T10:28:39.498Z,371
2019-01-24T10:29:46.713Z,372
2019-01-24T10:30:53.674Z,374
2019-01-24T10:32:00.871Z,376
2019-01-24T10:33:07.795Z,376
2019-01-24T10:34:14.999Z,376
2019-01-24T10:35:22.204Z,373
2019-01-24T10:36:29.436Z,371
2019-01-24T10:37:36.631Z,371
2019-01-24T10:38:43.299Z,377
2019-01-24T10:39:50.501Z,380
2019-01-24T10:40:57.714Z,385
2019-01-24T10:42:04.914Z,388
2019-01-24T10:43:12.117Z,386
2019-01-24T10:44:19.315Z,386
2019-01-24T10:45:26.234Z,386
2019-01-24T10:46:33.166Z,386
2019-01-24T10:47:40.371Z,387
2019-01-24T10:48:47.581Z,389
2019-01-24T10:49:54.516Z,389
2019-01-24T10:51:01.717Z,391
2019-01-24T10:52:08.926Z,391
2019-01-24T10:53:16.137Z,393
2019-01-24T10:54:23.340Z,390
2019-01-24T10:55:30.535Z,389
2019-01-24T10:56:37.758Z,388
2019-01-24T10:57:44.978Z,390
2019-01-24T10:58:52.178Z,392
2019-01-24T10:59:59.386Z,390
2019-01-24T11:01:06.324Z,394
2019-01-24T11:02:13.544Z,395
2019-01-24T11:03:20.767Z,393
2019-01-24T11:04:27.965Z,392
2019-01-24T11:05:34.884Z,391
2019-01-24T11:06:42.090Z,390
2019-01-24T11:07:49.297Z,391
2019-01-24T11:08:56.500Z,394
2019-01-24T11:10:03.435Z,394
2019-01-24T11:11:13.491Z,394
2019-01-24T11:12:20.442Z,393
2019-01-24T11:13:27.658Z,395
2019-01-24T11:14:34.612Z,397
2019-01-24T11:15:41.550Z,397
2019-01-24T11:16:48.751Z,396
2019-01-24T11:17:55.678Z,396
2019-01-24T11:19:02.862Z,396
2019-01-24T11:20:10.064Z,397
2019-01-24T11:21:17.279Z,395
2019-01-24T11:22:24.198Z,393
2019-01-24T11:23:31.382Z,390
2019-01-24T11:24:38.578Z,392
2019-01-24T11:25:45.789Z,393
2019-01-24T11:26:52.999Z,393
2019-01-24T11:28:00.211Z,392
2019-01-24T11:29:07.414Z,392
2019-01-24T11:30:14.359Z,393
2019-01-24T11:31:21.563Z,392
2019-01-24T11:32:28.495Z,393
2019-01-24T11:33:35.702Z,394
2019-01-24T11:34:42.908Z,392
2019-01-24T11:35:50.109Z,392
2019-01-24T11:36:58.172Z,390
2019-01-24T11:38:05.370Z,390
2019-01-24T11:39:13.939Z,390
2019-01-24T11:40:21.155Z,389
2019-01-24T11:41:28.078Z,390
2019-01-24T11:42:35.290Z,391
2019-01-24T11:43:42.501Z,391
2019-01-24T11:44:49.420Z,389
2019-01-24T11:45:56.358Z,390
2019-01-24T11:47:03.564Z,388
2019-01-24T11:48:10.771Z,387
2019-01-24T11:49:17.979Z,387
2019-01-24T11:50:25.203Z,386
2019-01-24T11:51:32.409Z,387
2019-01-24T11:52:39.341Z,385
2019-01-24T11:53:52.895Z,383
2019-01-24T11:55:00.251Z,379
2019-01-24T11:56:08.639Z,376
2019-01-24T11:57:15.840Z,369
2019-01-24T11:58:23.050Z,368
2019-01-24T11:59:30.255Z,368
2019-01-24T12:00:37.172Z,367
2019-01-24T12:01:44.435Z,366
2019-01-24T12:02:51.375Z,366
2019-01-24T12:03:58.571Z,367
2019-01-24T12:05:05.934Z,367
2019-01-24T12:06:27.778Z,367
2019-01-24T12:07:34.982Z,367
2019-01-24T12:08:42.178Z,375
2019-01-24T12:09:48.837Z,368
2019-01-24T12:10:55.770Z,366
2019-01-24T12:12:02.978Z,366
2019-01-24T12:13:10.181Z,365
2019-01-24T12:14:17.377Z,368
2019-01-24T12:15:24.292Z,367
2019-01-24T12:16:31.510Z,366
2019-01-24T12:17:38.711Z,367
2019-01-24T12:18:45.379Z,366
2019-01-24T12:19:52.582Z,367
2019-01-24T12:20:59.803Z,367
2019-01-24T12:22:07.017Z,367
2019-01-24T12:23:14.220Z,366
2019-01-24T12:24:21.425Z,380
2019-01-24T12:25:28.366Z,377
2019-01-24T12:26:35.585Z,370
2019-01-24T12:27:42.786Z,367
2019-01-24T12:28:49.706Z,365
2019-01-24T12:29:56.918Z,367
2019-01-24T12:31:03.568Z,382
2019-01-24T12:32:10.486Z,380
2019-01-24T12:33:17.422Z,375
2019-01-24T12:34:39.272Z,365
2019-01-24T12:35:46.195Z,367
2019-01-24T12:36:53.410Z,367
2019-01-24T12:38:00.613Z,379
2019-01-24T12:39:07.810Z,369
2019-01-24T12:40:15.004Z,368
2019-01-24T12:41:22.205Z,367
2019-01-24T12:42:29.413Z,366
2019-01-24T12:43:36.354Z,366
2019-01-24T12:44:43.560Z,366
2019-01-24T12:45:50.715Z,364
2019-01-24T12:46:57.925Z,364
2019-01-24T12:48:05.128Z,364
2019-01-24T12:49:12.382Z,365
2019-01-24T12:50:19.329Z,367
2019-01-24T12:51:26.235Z,365
2019-01-24T12:52:33.166Z,364
2019-01-24T12:53:40.101Z,364
2019-01-24T12:54:47.319Z,365
2019-01-24T12:55:54.521Z,367
2019-01-24T12:57:01.726Z,368
2019-01-24T12:58:23.573Z,369
2019-01-24T12:59:30.773Z,369
2019-01-24T13:00:37.728Z,369
2019-01-24T13:01:44.926Z,370
2019-01-24T13:02:52.129Z,372
2019-01-24T13:03:59.356Z,373
2019-01-24T13:05:06.561Z,374
2019-01-24T13:06:15.375Z,373
2019-01-24T13:07:22.574Z,373
2019-01-24T13:08:44.422Z,372
2019-01-24T13:09:51.620Z,371
2019-01-24T13:10:58.824Z,371
2019-01-24T13:12:05.746Z,371
2019-01-24T13:13:12.671Z,370
2019-01-24T13:14:19.874Z,370
2019-01-24T13:15:27.072Z,371
2019-01-24T13:16:35.737Z,370
2019-01-24T13:17:42.677Z,371
2019-01-24T13:18:49.890Z,372
2019-01-24T13:19:57.098Z,372
2019-01-24T13:21:04.061Z,378
2019-01-24T13:22:10.991Z,381
2019-01-24T13:23:18.187Z,380
2019-01-24T13:24:25.399Z,373
2019-01-24T13:25:32.806Z,370
2019-01-24T13:26:40.008Z,370
2019-01-24T13:27:47.229Z,371
2019-01-24T13:28:53.883Z,372
2019-01-24T13:30:01.172Z,372
2019-01-24T13:31:08.370Z,370
2019-01-24T13:32:15.297Z,370
2019-01-24T13:33:22.502Z,379
2019-01-24T13:34:29.706Z,377
2019-01-24T13:35:36.897Z,379
2019-01-24T13:36:44.093Z,372
2019-01-24T13:37:51.019Z,371
2019-01-24T13:38:58.234Z,372
2019-01-24T13:40:05.442Z,373
2019-01-24T13:41:12.642Z,374
2019-01-24T13:42:19.574Z,375
2019-01-24T13:43:26.778Z,376
2019-01-24T13:44:33.989Z,376
2019-01-24T13:45:41.185Z,377
2019-01-24T13:46:48.380Z,377
2019-01-24T13:47:55.590Z,377
2019-01-24T13:49:02.524Z,376
2019-01-24T13:50:09.469Z,378
2019-01-24T13:51:16.679Z,378
2019-01-24T13:52:23.900Z,377
2019-01-24T13:53:31.049Z,376
2019-01-24T13:54:38.250Z,377
2019-01-24T13:55:45.467Z,377
2019-01-24T13:56:52.389Z,378
2019-01-24T13:57:59.588Z,379
2019-01-24T13:59:06.794Z,382
2019-01-24T14:00:13.992Z,382
2019-01-24T14:01:21.200Z,382
2019-01-24T14:02:28.407Z,381
2019-01-24T14:03:42.553Z,379
2019-01-24T14:04:49.769Z,380
2019-01-24T14:05:56.982Z,381
2019-01-24T14:07:04.209Z,388
2019-01-24T14:08:11.154Z,381
2019-01-24T14:09:18.354Z,381
2019-01-24T14:10:25.568Z,381
2019-01-24T14:11:32.783Z,382
2019-01-24T14:12:39.992Z,382
2019-01-24T14:13:47.203Z,382
2019-01-24T14:14:54.400Z,382
2019-01-24T14:16:01.613Z,382
2019-01-24T14:17:08.569Z,382
2019-01-24T14:18:15.833Z,383
2019-01-24T14:19:23.031Z,383
2019-01-24T14:20:29.966Z,384
2019-01-24T14:21:37.172Z,384
2019-01-24T14:22:58.759Z,384
2019-01-24T14:24:05.961Z,385
2019-01-24T14:25:13.171Z,385
2019-01-24T14:26:20.375Z,385
2019-01-24T14:27:27.585Z,384
2019-01-24T14:28:34.516Z,384
2019-01-24T14:29:41.713Z,385
2019-01-24T14:30:48.946Z,384
2019-01-24T14:31:56.150Z,385
2019-01-24T14:33:03.365Z,384
2019-01-24T14:34:10.593Z,384
2019-01-24T14:35:17.800Z,385
2019-01-24T14:36:26.449Z,385
2019-01-24T14:37:40.192Z,384
2019-01-24T14:38:47.634Z,384
2019-01-24T14:39:54.827Z,385
2019-01-24T14:41:01.778Z,385
2019-01-24T14:42:08.713Z,384
2019-01-24T14:43:15.643Z,384
2019-01-24T14:44:22.591Z,385
2019-01-24T14:45:29.543Z,385
2019-01-24T14:46:36.747Z,385
2019-01-24T14:47:58.808Z,385
2019-01-24T14:49:06.012Z,385
2019-01-24T14:50:13.233Z,385
2019-01-24T14:51:20.428Z,385
2019-01-24T14:52:27.873Z,386
2019-01-24T14:53:35.092Z,385
2019-01-24T14:54:42.537Z,385
2019-01-24T14:55:49.741Z,385
2019-01-24T14:56:56.970Z,385
2019-01-24T14:58:04.181Z,385
2019-01-24T14:59:11.396Z,386
2019-01-24T15:00:18.343Z,385
2019-01-24T15:01:25.555Z,385
2019-01-24T15:02:32.520Z,386
2019-01-24T15:03:39.735Z,386
2019-01-24T15:04:46.937Z,386
2019-01-24T15:05:53.896Z,386
2019-01-24T15:07:01.096Z,387
2019-01-24T15:08:08.531Z,387
2019-01-24T15:09:15.730Z,387
2019-01-24T15:10:23.163Z,387
2019-01-24T15:11:30.371Z,387
2019-01-24T15:12:37.536Z,387
2019-01-24T15:13:44.736Z,387
2019-01-24T15:14:51.940Z,387
2019-01-24T15:15:59.159Z,388
2019-01-24T15:17:06.400Z,388
2019-01-24T15:18:13.626Z,388
2019-01-24T15:19:20.557Z,387
2019-01-24T15:20:27.754Z,387
2019-01-24T15:21:36.496Z,388
2019-01-24T15:22:43.418Z,388
2019-01-24T15:23:50.847Z,389
2019-01-24T15:24:57.782Z,388
2019-01-24T15:26:05.017Z,389
2019-01-24T15:27:12.239Z,388